sensor_id;sensor_type;location;lat;lon;timestamp;temperature;humidity
488;DHT22;16586;48.976;9.584;2023-04-12T00:02:01;10.20;43.90
488;DHT22;16586;48.976;9.584;2023-04-12T00:04:28;10.20;44.00
488;DHT22;16586;48.976;9.584;2023-04-12T00:06:58;10.20;44.10
488;DHT22;16586;48.976;9.584;2023-04-12T00:09:25;10.20;44.30
488;DHT22;16586;48.976;9.584;2023-04-12T00:11:54;10.20;44.20
488;DHT22;16586;48.976;9.584;2023-04-12T00:14:22;10.20;44.20
488;DHT22;16586;48.976;9.584;2023-04-12T00:16:48;10.20;44.10
488;DHT22;16586;48.976;9.584;2023-04-12T00:19:17;10.20;44.10
488;DHT22;16586;48.976;9.584;2023-04-12T00:21:44;10.30;44.60
488;DHT22;16586;48.976;9.584;2023-04-12T00:24:11;10.30;44.40
488;DHT22;16586;48.976;9.584;2023-04-12T00:26:38;10.30;44.40
488;DHT22;16586;48.976;9.584;2023-04-12T00:29:05;10.30;44.40
488;DHT22;16586;48.976;9.584;2023-04-12T00:31:31;10.20;44.40
488;DHT22;16586;48.976;9.584;2023-04-12T00:34:01;10.20;44.70
488;DHT22;16586;48.976;9.584;2023-04-12T00:36:29;10.30;45.10
488;DHT22;16586;48.976;9.584;2023-04-12T00:38:56;10.20;45.10
488;DHT22;16586;48.976;9.584;2023-04-12T00:41:24;10.20;45.00
488;DHT22;16586;48.976;9.584;2023-04-12T00:43:51;10.30;45.10
488;DHT22;16586;48.976;9.584;2023-04-12T00:46:18;10.30;45.20
488;DHT22;16586;48.976;9.584;2023-04-12T00:48:45;10.30;45.30
488;DHT22;16586;48.976;9.584;2023-04-12T00:51:12;10.20;45.60
488;DHT22;16586;48.976;9.584;2023-04-12T00:53:42;10.20;45.60
488;DHT22;16586;48.976;9.584;2023-04-12T00:56:09;10.20;45.90
488;DHT22;16586;48.976;9.584;2023-04-12T00:58:36;10.20;45.90
488;DHT22;16586;48.976;9.584;2023-04-12T01:01:03;10.30;45.90
488;DHT22;16586;48.976;9.584;2023-04-12T01:03:30;10.20;46.10
488;DHT22;16586;48.976;9.584;2023-04-12T01:06:06;10.10;46.50
488;DHT22;16586;48.976;9.584;2023-04-12T01:08:41;10.10;47.00
488;DHT22;16586;48.976;9.584;2023-04-12T01:11:19;10.20;46.80
488;DHT22;16586;48.976;9.584;2023-04-12T01:13:50;10.20;47.10
488;DHT22;16586;48.976;9.584;2023-04-12T01:16:26;10.20;47.40
488;DHT22;16586;48.976;9.584;2023-04-12T01:18:58;10.20;47.40
488;DHT22;16586;48.976;9.584;2023-04-12T01:21:33;10.10;47.30
488;DHT22;16586;48.976;9.584;2023-04-12T01:24:08;10.10;47.30
488;DHT22;16586;48.976;9.584;2023-04-12T01:26:43;10.10;47.80
488;DHT22;16586;48.976;9.584;2023-04-12T01:29:14;10.10;48.00
488;DHT22;16586;48.976;9.584;2023-04-12T01:31:46;10.10;48.10
488;DHT22;16586;48.976;9.584;2023-04-12T01:34:15;10.10;48.40
488;DHT22;16586;48.976;9.584;2023-04-12T01:36:44;10.00;48.70
488;DHT22;16586;48.976;9.584;2023-04-12T01:39:13;10.00;49.00
488;DHT22;16586;48.976;9.584;2023-04-12T01:41:40;10.00;49.20
488;DHT22;16586;48.976;9.584;2023-04-12T01:44:13;10.00;49.20
488;DHT22;16586;48.976;9.584;2023-04-12T01:46:41;10.00;49.40
488;DHT22;16586;48.976;9.584;2023-04-12T01:49:09;10.00;49.40
488;DHT22;16586;48.976;9.584;2023-04-12T01:51:44;10.10;49.70
488;DHT22;16586;48.976;9.584;2023-04-12T01:54:18;10.10;49.50
488;DHT22;16586;48.976;9.584;2023-04-12T01:56:56;10.20;49.60
488;DHT22;16586;48.976;9.584;2023-04-12T01:59:30;10.10;49.70
488;DHT22;16586;48.976;9.584;2023-04-12T02:01:58;10.10;49.80
488;DHT22;16586;48.976;9.584;2023-04-12T02:04:25;10.10;49.90
488;DHT22;16586;48.976;9.584;2023-04-12T02:06:53;10.10;50.30
488;DHT22;16586;48.976;9.584;2023-04-12T02:09:19;10.10;50.40
488;DHT22;16586;48.976;9.584;2023-04-12T02:11:48;10.10;50.50
488;DHT22;16586;48.976;9.584;2023-04-12T02:14:15;10.10;50.80
488;DHT22;16586;48.976;9.584;2023-04-12T02:16:43;10.10;50.80
488;DHT22;16586;48.976;9.584;2023-04-12T02:19:11;10.10;50.90
488;DHT22;16586;48.976;9.584;2023-04-12T02:21:42;10.10;50.70
488;DHT22;16586;48.976;9.584;2023-04-12T02:24:09;10.10;51.00
488;DHT22;16586;48.976;9.584;2023-04-12T02:26:36;10.10;51.00
488;DHT22;16586;48.976;9.584;2023-04-12T02:29:04;10.10;51.50
488;DHT22;16586;48.976;9.584;2023-04-12T02:31:33;10.10;51.70
488;DHT22;16586;48.976;9.584;2023-04-12T02:34:02;10.10;52.20
488;DHT22;16586;48.976;9.584;2023-04-12T02:36:29;10.20;52.60
488;DHT22;16586;48.976;9.584;2023-04-12T02:38:56;10.20;52.30
488;DHT22;16586;48.976;9.584;2023-04-12T02:41:23;10.10;52.40
488;DHT22;16586;48.976;9.584;2023-04-12T02:43:50;10.20;52.80
488;DHT22;16586;48.976;9.584;2023-04-12T02:46:19;10.20;53.30
488;DHT22;16586;48.976;9.584;2023-04-12T02:48:46;10.20;53.10
488;DHT22;16586;48.976;9.584;2023-04-12T02:51:14;10.20;53.00
488;DHT22;16586;48.976;9.584;2023-04-12T02:53:41;10.30;53.20
488;DHT22;16586;48.976;9.584;2023-04-12T02:56:08;10.30;53.20
488;DHT22;16586;48.976;9.584;2023-04-12T02:58:35;10.20;53.40
488;DHT22;16586;48.976;9.584;2023-04-12T03:01:02;10.30;53.50
488;DHT22;16586;48.976;9.584;2023-04-12T03:03:32;10.20;53.50
488;DHT22;16586;48.976;9.584;2023-04-12T03:05:59;10.10;53.40
488;DHT22;16586;48.976;9.584;2023-04-12T03:08:27;10.10;53.80
488;DHT22;16586;48.976;9.584;2023-04-12T03:10:54;10.20;53.90
488;DHT22;16586;48.976;9.584;2023-04-12T03:13:21;10.10;53.70
488;DHT22;16586;48.976;9.584;2023-04-12T03:15:48;10.10;53.90
488;DHT22;16586;48.976;9.584;2023-04-12T03:18:15;10.10;53.70
488;DHT22;16586;48.976;9.584;2023-04-12T03:20:45;10.20;53.90
488;DHT22;16586;48.976;9.584;2023-04-12T03:23:12;10.20;53.70
488;DHT22;16586;48.976;9.584;2023-04-12T03:25:40;10.20;53.90
488;DHT22;16586;48.976;9.584;2023-04-12T03:28:08;10.40;54.20
488;DHT22;16586;48.976;9.584;2023-04-12T03:30:34;10.20;54.00
488;DHT22;16586;48.976;9.584;2023-04-12T03:33:01;10.30;54.40
488;DHT22;16586;48.976;9.584;2023-04-12T03:35:28;10.30;54.20
488;DHT22;16586;48.976;9.584;2023-04-12T03:37:55;10.30;54.50
488;DHT22;16586;48.976;9.584;2023-04-12T03:40:21;10.30;54.30
488;DHT22;16586;48.976;9.584;2023-04-12T03:42:49;10.30;54.40
488;DHT22;16586;48.976;9.584;2023-04-12T03:45:16;10.30;54.50
488;DHT22;16586;48.976;9.584;2023-04-12T03:47:43;10.30;54.60
488;DHT22;16586;48.976;9.584;2023-04-12T03:50:10;10.30;54.30
488;DHT22;16586;48.976;9.584;2023-04-12T03:52:37;10.30;54.40
488;DHT22;16586;48.976;9.584;2023-04-12T03:55:05;10.20;54.70
488;DHT22;16586;48.976;9.584;2023-04-12T03:57:31;10.30;54.50
488;DHT22;16586;48.976;9.584;2023-04-12T03:59:59;10.20;54.40
488;DHT22;16586;48.976;9.584;2023-04-12T04:02:26;10.30;54.90
488;DHT22;16586;48.976;9.584;2023-04-12T04:04:53;10.20;54.70
488;DHT22;16586;48.976;9.584;2023-04-12T04:07:20;10.30;54.90
488;DHT22;16586;48.976;9.584;2023-04-12T04:09:47;10.20;54.80
488;DHT22;16586;48.976;9.584;2023-04-12T04:12:14;10.20;54.90
488;DHT22;16586;48.976;9.584;2023-04-12T04:14:41;10.30;54.90
488;DHT22;16586;48.976;9.584;2023-04-12T04:17:09;10.30;54.70
488;DHT22;16586;48.976;9.584;2023-04-12T04:19:36;10.30;55.00
488;DHT22;16586;48.976;9.584;2023-04-12T04:22:02;10.30;54.80
488;DHT22;16586;48.976;9.584;2023-04-12T04:24:29;10.30;54.70
488;DHT22;16586;48.976;9.584;2023-04-12T04:26:56;10.30;54.90
488;DHT22;16586;48.976;9.584;2023-04-12T04:29:23;10.30;54.80
488;DHT22;16586;48.976;9.584;2023-04-12T04:31:50;10.30;54.90
488;DHT22;16586;48.976;9.584;2023-04-12T04:34:19;10.30;54.90
488;DHT22;16586;48.976;9.584;2023-04-12T04:36:46;10.30;55.10
488;DHT22;16586;48.976;9.584;2023-04-12T04:39:13;10.30;55.30
488;DHT22;16586;48.976;9.584;2023-04-12T04:41:40;10.30;54.80
488;DHT22;16586;48.976;9.584;2023-04-12T04:44:07;10.30;55.10
488;DHT22;16586;48.976;9.584;2023-04-12T04:46:34;10.30;55.20
488;DHT22;16586;48.976;9.584;2023-04-12T04:49:02;10.20;55.20
488;DHT22;16586;48.976;9.584;2023-04-12T04:51:31;10.20;55.40
488;DHT22;16586;48.976;9.584;2023-04-12T04:53:58;10.20;55.40
488;DHT22;16586;48.976;9.584;2023-04-12T04:56:26;10.20;55.20
488;DHT22;16586;48.976;9.584;2023-04-12T04:58:53;10.20;55.60
488;DHT22;16586;48.976;9.584;2023-04-12T05:01:20;10.20;55.60
488;DHT22;16586;48.976;9.584;2023-04-12T05:03:50;10.30;55.70
488;DHT22;16586;48.976;9.584;2023-04-12T05:06:16;10.30;55.70
488;DHT22;16586;48.976;9.584;2023-04-12T05:08:44;10.30;56.10
488;DHT22;16586;48.976;9.584;2023-04-12T05:11:11;10.30;56.00
488;DHT22;16586;48.976;9.584;2023-04-12T05:13:38;10.40;56.00
488;DHT22;16586;48.976;9.584;2023-04-12T05:16:05;10.40;56.00
488;DHT22;16586;48.976;9.584;2023-04-12T05:18:33;10.40;55.50
488;DHT22;16586;48.976;9.584;2023-04-12T05:21:01;10.30;55.70
488;DHT22;16586;48.976;9.584;2023-04-12T05:23:33;10.30;56.00
488;DHT22;16586;48.976;9.584;2023-04-12T05:26:01;10.30;55.90
488;DHT22;16586;48.976;9.584;2023-04-12T05:28:28;10.20;56.30
488;DHT22;16586;48.976;9.584;2023-04-12T05:30:55;10.20;56.40
488;DHT22;16586;48.976;9.584;2023-04-12T05:33:22;10.20;56.60
488;DHT22;16586;48.976;9.584;2023-04-12T05:35:48;10.20;56.60
488;DHT22;16586;48.976;9.584;2023-04-12T05:38:15;10.30;56.40
488;DHT22;16586;48.976;9.584;2023-04-12T05:40:42;10.30;56.60
488;DHT22;16586;48.976;9.584;2023-04-12T05:43:10;10.30;56.80
488;DHT22;16586;48.976;9.584;2023-04-12T05:45:37;10.40;56.70
488;DHT22;16586;48.976;9.584;2023-04-12T05:48:05;10.40;56.80
488;DHT22;16586;48.976;9.584;2023-04-12T05:50:31;10.40;56.90
488;DHT22;16586;48.976;9.584;2023-04-12T05:52:59;10.50;57.00
488;DHT22;16586;48.976;9.584;2023-04-12T05:55:26;10.50;56.90
488;DHT22;16586;48.976;9.584;2023-04-12T05:57:53;10.50;56.90
488;DHT22;16586;48.976;9.584;2023-04-12T06:00:21;10.50;56.70
488;DHT22;16586;48.976;9.584;2023-04-12T06:02:48;10.50;56.80
488;DHT22;16586;48.976;9.584;2023-04-12T06:05:16;10.60;56.90
488;DHT22;16586;48.976;9.584;2023-04-12T06:07:43;10.60;57.10
488;DHT22;16586;48.976;9.584;2023-04-12T06:10:12;10.60;57.00
488;DHT22;16586;48.976;9.584;2023-04-12T06:12:39;10.60;57.10
488;DHT22;16586;48.976;9.584;2023-04-12T06:15:06;10.60;57.00
488;DHT22;16586;48.976;9.584;2023-04-12T06:17:35;10.60;57.40
488;DHT22;16586;48.976;9.584;2023-04-12T06:20:02;10.60;57.40
488;DHT22;16586;48.976;9.584;2023-04-12T06:22:32;10.70;57.30
488;DHT22;16586;48.976;9.584;2023-04-12T06:24:59;10.70;57.30
488;DHT22;16586;48.976;9.584;2023-04-12T06:27:26;10.70;57.50
488;DHT22;16586;48.976;9.584;2023-04-12T06:29:52;10.70;57.30
488;DHT22;16586;48.976;9.584;2023-04-12T06:32:19;10.80;57.70
488;DHT22;16586;48.976;9.584;2023-04-12T06:34:47;10.80;57.40
488;DHT22;16586;48.976;9.584;2023-04-12T06:37:14;10.80;57.40
488;DHT22;16586;48.976;9.584;2023-04-12T06:39:41;10.80;57.50
488;DHT22;16586;48.976;9.584;2023-04-12T06:42:08;10.90;56.90
488;DHT22;16586;48.976;9.584;2023-04-12T06:44:35;10.90;57.20
488;DHT22;16586;48.976;9.584;2023-04-12T06:47:01;10.90;57.00
488;DHT22;16586;48.976;9.584;2023-04-12T06:49:28;10.90;57.30
488;DHT22;16586;48.976;9.584;2023-04-12T06:51:56;10.90;57.00
488;DHT22;16586;48.976;9.584;2023-04-12T06:54:24;10.90;57.40
488;DHT22;16586;48.976;9.584;2023-04-12T06:56:53;10.90;57.50
488;DHT22;16586;48.976;9.584;2023-04-12T06:59:21;10.90;57.30
488;DHT22;16586;48.976;9.584;2023-04-12T07:01:48;10.90;57.70
488;DHT22;16586;48.976;9.584;2023-04-12T07:04:15;11.00;57.50
488;DHT22;16586;48.976;9.584;2023-04-12T07:06:42;11.00;57.70
488;DHT22;16586;48.976;9.584;2023-04-12T07:09:10;11.00;57.50
488;DHT22;16586;48.976;9.584;2023-04-12T07:11:37;11.00;58.20
488;DHT22;16586;48.976;9.584;2023-04-12T07:14:03;11.10;58.10
488;DHT22;16586;48.976;9.584;2023-04-12T07:16:30;11.20;57.90
488;DHT22;16586;48.976;9.584;2023-04-12T07:18:58;11.30;58.00
488;DHT22;16586;48.976;9.584;2023-04-12T07:21:24;11.40;58.00
488;DHT22;16586;48.976;9.584;2023-04-12T07:23:52;11.40;57.60
488;DHT22;16586;48.976;9.584;2023-04-12T07:26:20;11.40;57.50
488;DHT22;16586;48.976;9.584;2023-04-12T07:28:47;11.40;57.60
488;DHT22;16586;48.976;9.584;2023-04-12T07:31:13;11.50;57.90
488;DHT22;16586;48.976;9.584;2023-04-12T07:33:40;11.60;57.90
488;DHT22;16586;48.976;9.584;2023-04-12T07:36:07;11.70;57.40
488;DHT22;16586;48.976;9.584;2023-04-12T07:38:34;11.70;57.20
488;DHT22;16586;48.976;9.584;2023-04-12T07:41:01;11.70;57.00
488;DHT22;16586;48.976;9.584;2023-04-12T07:43:29;11.70;56.80
488;DHT22;16586;48.976;9.584;2023-04-12T07:45:56;11.80;56.80
488;DHT22;16586;48.976;9.584;2023-04-12T07:48:23;11.80;56.80
488;DHT22;16586;48.976;9.584;2023-04-12T07:50:49;11.90;56.20
488;DHT22;16586;48.976;9.584;2023-04-12T07:53:17;11.90;56.30
488;DHT22;16586;48.976;9.584;2023-04-12T07:55:44;11.90;56.10
488;DHT22;16586;48.976;9.584;2023-04-12T07:58:11;11.90;56.60
488;DHT22;16586;48.976;9.584;2023-04-12T08:00:39;12.00;55.90
488;DHT22;16586;48.976;9.584;2023-04-12T08:03:06;12.00;56.60
488;DHT22;16586;48.976;9.584;2023-04-12T08:05:33;12.10;56.70
488;DHT22;16586;48.976;9.584;2023-04-12T08:08:00;12.20;56.60
488;DHT22;16586;48.976;9.584;2023-04-12T08:10:27;12.20;56.30
488;DHT22;16586;48.976;9.584;2023-04-12T08:12:54;12.20;56.60
488;DHT22;16586;48.976;9.584;2023-04-12T08:15:21;12.40;56.60
488;DHT22;16586;48.976;9.584;2023-04-12T08:17:49;12.40;56.10
488;DHT22;16586;48.976;9.584;2023-04-12T08:20:16;12.50;56.30
488;DHT22;16586;48.976;9.584;2023-04-12T08:22:44;12.60;55.80
488;DHT22;16586;48.976;9.584;2023-04-12T08:25:11;12.60;55.70
488;DHT22;16586;48.976;9.584;2023-04-12T08:27:40;12.60;55.40
488;DHT22;16586;48.976;9.584;2023-04-12T08:30:08;12.70;56.00
488;DHT22;16586;48.976;9.584;2023-04-12T08:32:35;12.70;55.90
488;DHT22;16586;48.976;9.584;2023-04-12T08:35:03;12.80;56.30
488;DHT22;16586;48.976;9.584;2023-04-12T08:37:30;12.90;56.00
488;DHT22;16586;48.976;9.584;2023-04-12T08:39:58;13.00;56.10
488;DHT22;16586;48.976;9.584;2023-04-12T08:42:25;13.00;55.70
488;DHT22;16586;48.976;9.584;2023-04-12T08:44:52;13.00;55.30
488;DHT22;16586;48.976;9.584;2023-04-12T08:47:20;13.10;55.20
488;DHT22;16586;48.976;9.584;2023-04-12T08:49:47;13.10;55.10
488;DHT22;16586;48.976;9.584;2023-04-12T08:52:16;13.10;54.80
488;DHT22;16586;48.976;9.584;2023-04-12T08:54:43;13.10;54.80
488;DHT22;16586;48.976;9.584;2023-04-12T08:57:09;13.10;54.90
488;DHT22;16586;48.976;9.584;2023-04-12T08:59:40;13.20;55.20
488;DHT22;16586;48.976;9.584;2023-04-12T09:02:07;13.20;55.20
488;DHT22;16586;48.976;9.584;2023-04-12T09:04:46;13.20;55.50
488;DHT22;16586;48.976;9.584;2023-04-12T09:07:14;13.30;55.60
488;DHT22;16586;48.976;9.584;2023-04-12T09:09:42;13.30;55.20
488;DHT22;16586;48.976;9.584;2023-04-12T09:12:09;13.30;55.30
488;DHT22;16586;48.976;9.584;2023-04-12T09:14:37;13.40;55.40
488;DHT22;16586;48.976;9.584;2023-04-12T09:17:04;13.40;55.30
488;DHT22;16586;48.976;9.584;2023-04-12T09:19:32;13.50;55.80
488;DHT22;16586;48.976;9.584;2023-04-12T09:21:59;13.60;55.10
488;DHT22;16586;48.976;9.584;2023-04-12T09:24:28;13.60;54.90
488;DHT22;16586;48.976;9.584;2023-04-12T09:27:01;13.70;55.70
488;DHT22;16586;48.976;9.584;2023-04-12T09:29:29;13.80;55.80
488;DHT22;16586;48.976;9.584;2023-04-12T09:31:59;14.00;56.10
488;DHT22;16586;48.976;9.584;2023-04-12T09:34:26;14.10;55.20
488;DHT22;16586;48.976;9.584;2023-04-12T09:36:52;14.10;54.70
488;DHT22;16586;48.976;9.584;2023-04-12T09:39:22;14.10;54.30
488;DHT22;16586;48.976;9.584;2023-04-12T09:42:05;14.20;54.30
488;DHT22;16586;48.976;9.584;2023-04-12T09:44:32;14.20;54.40
488;DHT22;16586;48.976;9.584;2023-04-12T09:46:59;14.10;54.30
488;DHT22;16586;48.976;9.584;2023-04-12T09:49:37;14.10;53.90
488;DHT22;16586;48.976;9.584;2023-04-12T09:52:05;14.10;54.00
488;DHT22;16586;48.976;9.584;2023-04-12T09:54:37;14.10;54.00
488;DHT22;16586;48.976;9.584;2023-04-12T09:57:07;14.10;53.30
488;DHT22;16586;48.976;9.584;2023-04-12T09:59:36;14.10;53.70
488;DHT22;16586;48.976;9.584;2023-04-12T10:02:07;14.10;53.60
488;DHT22;16586;48.976;9.584;2023-04-12T10:04:39;14.10;54.20
488;DHT22;16586;48.976;9.584;2023-04-12T10:07:06;14.20;54.30
488;DHT22;16586;48.976;9.584;2023-04-12T10:09:33;14.20;54.50
488;DHT22;16586;48.976;9.584;2023-04-12T10:12:01;14.20;54.40
488;DHT22;16586;48.976;9.584;2023-04-12T10:14:31;14.30;54.40
488;DHT22;16586;48.976;9.584;2023-04-12T10:16:59;14.40;54.70
488;DHT22;16586;48.976;9.584;2023-04-12T10:19:27;14.60;54.40
488;DHT22;16586;48.976;9.584;2023-04-12T10:21:54;14.70;54.90
488;DHT22;16586;48.976;9.584;2023-04-12T10:24:21;14.80;54.10
488;DHT22;16586;48.976;9.584;2023-04-12T10:26:49;14.90;54.10
488;DHT22;16586;48.976;9.584;2023-04-12T10:29:24;15.00;53.70
488;DHT22;16586;48.976;9.584;2023-04-12T10:31:52;15.10;53.30
488;DHT22;16586;48.976;9.584;2023-04-12T10:34:23;15.20;53.20
488;DHT22;16586;48.976;9.584;2023-04-12T10:36:52;15.30;52.90
488;DHT22;16586;48.976;9.584;2023-04-12T10:39:37;15.30;52.40
488;DHT22;16586;48.976;9.584;2023-04-12T10:42:25;15.30;52.30
488;DHT22;16586;48.976;9.584;2023-04-12T10:44:54;15.40;51.40
488;DHT22;16586;48.976;9.584;2023-04-12T10:47:56;15.50;52.50
488;DHT22;16586;48.976;9.584;2023-04-12T10:50:27;15.60;51.40
488;DHT22;16586;48.976;9.584;2023-04-12T10:53:22;15.60;51.30
488;DHT22;16586;48.976;9.584;2023-04-12T10:55:51;15.60;50.20
488;DHT22;16586;48.976;9.584;2023-04-12T10:58:56;15.50;50.00
488;DHT22;16586;48.976;9.584;2023-04-12T11:01:24;15.50;49.70
488;DHT22;16586;48.976;9.584;2023-04-12T11:04:15;15.20;51.00
488;DHT22;16586;48.976;9.584;2023-04-12T11:06:46;15.00;52.00
488;DHT22;16586;48.976;9.584;2023-04-12T11:09:18;14.90;51.90
488;DHT22;16586;48.976;9.584;2023-04-12T11:11:45;14.90;52.60
488;DHT22;16586;48.976;9.584;2023-04-12T11:14:14;15.00;52.50
488;DHT22;16586;48.976;9.584;2023-04-12T11:17:21;14.90;51.60
488;DHT22;16586;48.976;9.584;2023-04-12T11:19:52;15.00;53.00
488;DHT22;16586;48.976;9.584;2023-04-12T11:22:21;15.10;52.80
488;DHT22;16586;48.976;9.584;2023-04-12T11:24:49;15.30;52.30
488;DHT22;16586;48.976;9.584;2023-04-12T11:27:18;15.50;52.80
488;DHT22;16586;48.976;9.584;2023-04-12T11:29:50;15.70;53.30
488;DHT22;16586;48.976;9.584;2023-04-12T11:32:17;16.00;52.70
488;DHT22;16586;48.976;9.584;2023-04-12T11:34:45;16.00;50.60
488;DHT22;16586;48.976;9.584;2023-04-12T11:37:14;16.10;51.10
488;DHT22;16586;48.976;9.584;2023-04-12T11:39:44;16.20;51.30
488;DHT22;16586;48.976;9.584;2023-04-12T11:42:12;16.30;51.20
488;DHT22;16586;48.976;9.584;2023-04-12T11:44:40;16.50;49.40
488;DHT22;16586;48.976;9.584;2023-04-12T11:47:13;16.40;49.70
488;DHT22;16586;48.976;9.584;2023-04-12T11:49:45;16.40;49.00
488;DHT22;16586;48.976;9.584;2023-04-12T11:52:16;16.40;49.50
488;DHT22;16586;48.976;9.584;2023-04-12T11:54:51;16.40;50.80
488;DHT22;16586;48.976;9.584;2023-04-12T11:57:21;16.40;50.10
488;DHT22;16586;48.976;9.584;2023-04-12T11:59:48;16.40;49.70
488;DHT22;16586;48.976;9.584;2023-04-12T12:02:16;16.50;49.70
488;DHT22;16586;48.976;9.584;2023-04-12T12:04:47;16.50;49.80
488;DHT22;16586;48.976;9.584;2023-04-12T12:07:16;16.50;49.40
488;DHT22;16586;48.976;9.584;2023-04-12T12:09:44;16.40;49.20
488;DHT22;16586;48.976;9.584;2023-04-12T12:12:12;16.50;49.60
488;DHT22;16586;48.976;9.584;2023-04-12T12:14:39;16.60;49.70
488;DHT22;16586;48.976;9.584;2023-04-12T12:17:14;16.80;49.60
488;DHT22;16586;48.976;9.584;2023-04-12T12:19:43;16.60;49.30
488;DHT22;16586;48.976;9.584;2023-04-12T12:22:11;16.60;49.20
488;DHT22;16586;48.976;9.584;2023-04-12T12:24:44;16.50;48.80
488;DHT22;16586;48.976;9.584;2023-04-12T12:27:12;16.50;49.50
488;DHT22;16586;48.976;9.584;2023-04-12T12:29:39;16.60;49.50
488;DHT22;16586;48.976;9.584;2023-04-12T12:32:10;16.60;48.00
488;DHT22;16586;48.976;9.584;2023-04-12T12:34:39;16.70;48.20
488;DHT22;16586;48.976;9.584;2023-04-12T12:37:12;16.80;48.10
488;DHT22;16586;48.976;9.584;2023-04-12T12:39:59;16.90;47.10
488;DHT22;16586;48.976;9.584;2023-04-12T12:42:26;16.90;45.70
488;DHT22;16586;48.976;9.584;2023-04-12T12:45:02;16.80;46.30
488;DHT22;16586;48.976;9.584;2023-04-12T12:47:33;16.90;46.50
488;DHT22;16586;48.976;9.584;2023-04-12T12:50:10;16.90;46.20
488;DHT22;16586;48.976;9.584;2023-04-12T12:52:38;17.10;45.70
488;DHT22;16586;48.976;9.584;2023-04-12T12:55:08;17.20;44.70
488;DHT22;16586;48.976;9.584;2023-04-12T12:57:35;17.20;43.70
488;DHT22;16586;48.976;9.584;2023-04-12T13:00:02;17.10;44.30
488;DHT22;16586;48.976;9.584;2023-04-12T13:02:30;17.00;43.80
488;DHT22;16586;48.976;9.584;2023-04-12T13:04:57;16.70;44.20
488;DHT22;16586;48.976;9.584;2023-04-12T13:07:24;16.80;45.30
488;DHT22;16586;48.976;9.584;2023-04-12T13:09:51;16.80;45.00
488;DHT22;16586;48.976;9.584;2023-04-12T13:12:19;16.80;45.40
488;DHT22;16586;48.976;9.584;2023-04-12T13:14:47;16.80;45.70
488;DHT22;16586;48.976;9.584;2023-04-12T13:17:14;16.90;46.00
488;DHT22;16586;48.976;9.584;2023-04-12T13:19:41;17.00;46.40
488;DHT22;16586;48.976;9.584;2023-04-12T13:22:07;17.00;46.10
488;DHT22;16586;48.976;9.584;2023-04-12T13:24:34;16.90;45.30
488;DHT22;16586;48.976;9.584;2023-04-12T13:27:01;17.00;45.10
488;DHT22;16586;48.976;9.584;2023-04-12T13:29:29;17.00;45.20
488;DHT22;16586;48.976;9.584;2023-04-12T13:31:56;17.00;44.70
488;DHT22;16586;48.976;9.584;2023-04-12T13:34:26;16.90;44.40
488;DHT22;16586;48.976;9.584;2023-04-12T13:36:55;16.60;44.60
488;DHT22;16586;48.976;9.584;2023-04-12T13:39:22;16.60;46.10
488;DHT22;16586;48.976;9.584;2023-04-12T13:41:49;16.80;46.40
488;DHT22;16586;48.976;9.584;2023-04-12T13:44:15;17.00;46.10
488;DHT22;16586;48.976;9.584;2023-04-12T13:46:44;17.30;45.20
488;DHT22;16586;48.976;9.584;2023-04-12T13:49:11;17.50;42.30
488;DHT22;16586;48.976;9.584;2023-04-12T13:51:38;17.70;42.90
488;DHT22;16586;48.976;9.584;2023-04-12T13:54:06;17.80;42.30
488;DHT22;16586;48.976;9.584;2023-04-12T13:56:36;17.90;42.00
488;DHT22;16586;48.976;9.584;2023-04-12T13:59:03;17.80;40.90
488;DHT22;16586;48.976;9.584;2023-04-12T14:01:30;17.70;40.80
488;DHT22;16586;48.976;9.584;2023-04-12T14:03:58;17.50;41.20
488;DHT22;16586;48.976;9.584;2023-04-12T14:06:25;17.50;42.20
488;DHT22;16586;48.976;9.584;2023-04-12T14:08:52;17.60;41.40
488;DHT22;16586;48.976;9.584;2023-04-12T14:11:22;17.80;42.60
488;DHT22;16586;48.976;9.584;2023-04-12T14:13:50;18.10;41.10
488;DHT22;16586;48.976;9.584;2023-04-12T14:16:17;18.40;41.20
488;DHT22;16586;48.976;9.584;2023-04-12T14:18:44;18.60;40.40
488;DHT22;16586;48.976;9.584;2023-04-12T14:21:13;18.70;38.80
488;DHT22;16586;48.976;9.584;2023-04-12T14:23:40;18.70;38.60
488;DHT22;16586;48.976;9.584;2023-04-12T14:26:06;18.30;38.80
488;DHT22;16586;48.976;9.584;2023-04-12T14:28:34;18.00;39.10
488;DHT22;16586;48.976;9.584;2023-04-12T14:31:00;17.80;39.50
488;DHT22;16586;48.976;9.584;2023-04-12T14:33:27;17.50;39.50
488;DHT22;16586;48.976;9.584;2023-04-12T14:35:54;17.30;40.00
488;DHT22;16586;48.976;9.584;2023-04-12T14:38:23;17.20;40.50
488;DHT22;16586;48.976;9.584;2023-04-12T14:40:50;17.00;40.80
488;DHT22;16586;48.976;9.584;2023-04-12T14:43:18;16.90;41.40
488;DHT22;16586;48.976;9.584;2023-04-12T14:45:45;17.00;42.30
488;DHT22;16586;48.976;9.584;2023-04-12T14:48:12;17.70;41.80
488;DHT22;16586;48.976;9.584;2023-04-12T14:50:39;16.80;41.60
488;DHT22;16586;48.976;9.584;2023-04-12T14:53:05;16.80;42.00
488;DHT22;16586;48.976;9.584;2023-04-12T14:55:35;16.90;41.80
488;DHT22;16586;48.976;9.584;2023-04-12T14:58:02;16.90;42.30
488;DHT22;16586;48.976;9.584;2023-04-12T15:00:28;17.00;41.70
488;DHT22;16586;48.976;9.584;2023-04-12T15:02:55;17.00;41.80
488;DHT22;16586;48.976;9.584;2023-04-12T15:05:24;16.90;42.20
488;DHT22;16586;48.976;9.584;2023-04-12T15:07:52;17.10;41.70
488;DHT22;16586;48.976;9.584;2023-04-12T15:10:19;17.40;40.70
488;DHT22;16586;48.976;9.584;2023-04-12T15:12:47;17.60;39.90
488;DHT22;16586;48.976;9.584;2023-04-12T15:15:16;17.60;39.70
488;DHT22;16586;48.976;9.584;2023-04-12T15:17:47;17.80;39.80
488;DHT22;16586;48.976;9.584;2023-04-12T15:20:14;17.80;39.30
488;DHT22;16586;48.976;9.584;2023-04-12T15:22:42;17.70;38.60
488;DHT22;16586;48.976;9.584;2023-04-12T15:25:09;17.50;39.00
488;DHT22;16586;48.976;9.584;2023-04-12T15:27:37;17.40;39.40
488;DHT22;16586;48.976;9.584;2023-04-12T15:30:06;17.20;40.90
488;DHT22;16586;48.976;9.584;2023-04-12T15:32:35;17.00;42.10
488;DHT22;16586;48.976;9.584;2023-04-12T15:35:03;16.90;43.50
488;DHT22;16586;48.976;9.584;2023-04-12T15:37:31;16.80;44.50
488;DHT22;16586;48.976;9.584;2023-04-12T15:39:59;16.70;45.70
488;DHT22;16586;48.976;9.584;2023-04-12T15:42:26;16.30;51.50
488;DHT22;16586;48.976;9.584;2023-04-12T15:44:52;15.40;52.90
488;DHT22;16586;48.976;9.584;2023-04-12T15:47:20;14.60;56.40
488;DHT22;16586;48.976;9.584;2023-04-12T15:49:47;13.90;58.60
488;DHT22;16586;48.976;9.584;2023-04-12T15:52:14;13.30;60.60
488;DHT22;16586;48.976;9.584;2023-04-12T15:54:41;12.90;63.20
488;DHT22;16586;48.976;9.584;2023-04-12T15:57:08;12.60;64.40
488;DHT22;16586;48.976;9.584;2023-04-12T15:59:36;12.40;66.20
488;DHT22;16586;48.976;9.584;2023-04-12T16:02:06;12.20;68.20
488;DHT22;16586;48.976;9.584;2023-04-12T16:04:36;12.20;71.10
488;DHT22;16586;48.976;9.584;2023-04-12T16:07:03;11.90;72.50
488;DHT22;16586;48.976;9.584;2023-04-12T16:09:30;12.00;70.00
488;DHT22;16586;48.976;9.584;2023-04-12T16:11:59;11.90;71.20